LDRI/RJK METAR and TAF weather

Enter ICAO airport designator
Station Type Date Time Source
LDRI METAR 2022/01/29 10:00 UTC NOAA

LDRI 291000Z 25005KT 200V310 CAVOK 09/M04 Q1030


Station Type Date Time Source
LDRI Decoded METAR 2022/01/29 10:00 UTC NOAA

Rijeka / Omisalj, Croatia (LDRI) 45-13N 014-35E
Jan 29, 2022 - 05:00 AM EST / 2022.01.29 1000 UTC
Wind: from the WSW (250 degrees) at 6 MPH (5 KT) (direction variable):0
Visibility: greater than 7 mile(s):0
Temperature: 48 F (9 C)
Dew Point: 24 F (-4 C)
Relative Humidity: 39%
Pressure (altimeter): 30.42 in. Hg (1030 hPa)
ob: LDRI 291000Z 25005KT 200V310 CAVOK 09/M04 Q1030
cycle: 10

Station Type Date Time Source
LDRI TAF 2022/01/29 06:27 UTC NOAA

TAF LDRI 290525Z 2906/3006 05006KT CAVOK TX09/2913Z TN01/3005Z PROB30
TEMPO 2910/2915 30008KT

Example: see airport list